Guapimirim, Brazil
Current Conditions -  °F | °C
As of 1:00 PM on Tuesday 21 Oct 2014 (Local Time) from SBGL Reporting Station
Broken Clouds Broken Clouds  
Wind Chill: 70°   Ceiling: 3000
Heat Index: 70°   Visibility: 6mi
Dew Point: 63°   Wind: 8mph
Humidity: 78%   Direction: 280°W
Pressure: 30.12"   Gusts: NA
Location:  22.54°S, 42.98°W
Report Text: SBGL 211500Z 28007KT 9999 FEW010 BKN030 BKN065 21/17 Q1020
Loading
Personal Weather Stations






























Interactive Weather Map
Tropical Storm Tracking
New forecast layout! Learn more

10-Day Weather Forecast

Advertisements
Track Severe Weather on mobile